Time;durP1;ratioP1;P1;durP2;ratioP2;P2;SDS_P1;SDS_P2;PMS_P1;PMS_P2;Temp;Humidity;BMP_temperature;BMP_pressure;BME280_temperature;BME280_humidity;BME280_pressure;Samples;Min_cycle;Max_cycle;Signal;HPM_P1;HPM_P2
2023/01/03 00:45:08;;;;;;;1999.90;999.90;;;8.00;99.90;;;;;;6373253;22;20021;-76
2023/01/03 00:47:33;;;;;;;1999.90;999.90;;;8.00;99.90;;;;;;6376116;22;20777;-76
2023/01/03 00:49:59;;;;;;;1999.90;999.90;;;8.00;99.90;;;;;;6376939;22;20026;-76
2023/01/03 00:52:24;;;;;;;1999.90;999.90;;;8.00;99.90;;;;;;6376837;22;20341;-75
2023/01/03 00:54:50;;;;;;;1999.90;999.90;;;8.00;99.90;;;;;;6376542;22;20014;-75
2023/01/03 00:57:15;;;;;;;1999.90;999.90;;;7.90;99.90;;;;;;6348441;22;20011;-75
2023/01/03 00:59:41;;;;;;;1999.90;999.90;;;7.90;99.90;;;;;;6348783;22;20007;-75
2023/01/03 01:02:06;;;;;;;1999.90;999.90;;;8.00;99.90;;;;;;6332635;22;20077;-81
2023/01/03 01:04:32;;;;;;;1999.90;999.90;;;8.00;99.90;;;;;;6318723;22;20011;-81
2023/01/03 01:07:03;;;;;;;1999.90;999.90;;;8.00;99.90;;;;;;6318043;22;20003;-82
2023/01/03 01:09:34;;;;;;;1999.90;999.90;;;8.00;99.90;;;;;;6319790;22;20034;-81
2023/01/03 01:11:59;;;;;;;1999.90;999.90;;;8.00;99.90;;;;;;6305858;22;20082;-81
2023/01/03 01:14:27;;;;;;;1999.90;999.90;;;8.00;99.90;;;;;;6351562;22;20027;-81
2023/01/03 01:16:57;;;;;;;1999.90;999.90;;;8.00;99.90;;;;;;6321407;22;20061;-81
2023/01/03 01:19:29;;;;;;;1999.90;999.90;;;8.00;99.90;;;;;;6350041;22;20007;-81
2023/01/03 01:21:55;;;;;;;1999.90;999.90;;;7.90;99.90;;;;;;6349587;22;20088;-81
2023/01/03 01:24:20;;;;;;;1999.90;999.90;;;7.80;99.90;;;;;;6322183;22;20369;-81
2023/01/03 01:26:47;;;;;;;1999.90;999.90;;;7.80;99.90;;;;;;6348113;22;20007;-81
2023/01/03 01:29:13;;;;;;;1999.90;999.90;;;7.80;99.90;;;;;;6350061;22;20003;-81
2023/01/03 01:31:39;;;;;;;1999.90;999.90;;;7.70;99.90;;;;;;6349633;22;20424;-82
2023/01/03 01:34:05;;;;;;;1999.90;999.90;;;7.70;99.90;;;;;;6350226;22;19999;-81
2023/01/03 01:36:36;;;;;;;1999.90;999.90;;;7.70;99.90;;;;;;6322221;22;20018;-81
2023/01/03 01:39:31;;;;;;;1999.90;999.90;;;7.70;99.90;;;;;;6323222;22;20007;-82
2023/01/03 01:45:14;;;;;;;1999.90;999.90;;;7.70;99.90;;;;;;6350927;22;20018;-81
2023/01/03 01:47:48;;;;;;;1999.90;999.90;;;7.60;99.90;;;;;;6323277;22;20019;-81
2023/01/03 01:50:30;;;;;;;1999.90;999.90;;;7.50;99.90;;;;;;6349318;22;20075;-80
2023/01/03 01:52:56;;;;;;;1999.90;999.90;;;7.40;99.90;;;;;;6348785;22;20433;-80
2023/01/03 01:55:32;;;;;;;1999.90;999.90;;;7.30;99.90;;;;;;6320978;22;20027;-80
2023/01/03 01:58:00;;;;;;;1999.90;999.90;;;7.30;99.90;;;;;;6348909;22;20023;-80
2023/01/03 02:00:26;;;;;;;1999.90;999.90;;;7.20;99.90;;;;;;6321000;22;20003;-80
2023/01/03 02:02:52;;;;;;;1999.90;999.90;;;7.10;99.90;;;;;;6320201;22;20167;-80
2023/01/03 02:05:20;;;;;;;1999.90;999.90;;;7.10;99.90;;;;;;6349049;22;20099;-80
2023/01/03 02:07:50;;;;;;;1999.90;999.90;;;7.00;99.90;;;;;;6348817;22;20012;-80
2023/01/03 02:10:19;;;;;;;1999.90;999.90;;;6.90;99.90;;;;;;6348824;22;20057;-80
2023/01/03 02:13:07;;;;;;;1999.90;999.90;;;6.70;99.90;;;;;;6348596;22;20007;-80
2023/01/03 02:16:16;;;;;;;1999.90;999.90;;;6.60;99.90;;;;;;6320891;22;20372;-80
2023/01/03 02:18:54;;;;;;;1999.90;999.90;;;6.40;99.90;;;;;;6349214;22;20011;-80
2023/01/03 02:21:38;;;;;;;1999.90;999.90;;;6.30;99.90;;;;;;6348203;22;20050;-80
2023/01/03 02:24:15;;;;;;;1999.90;999.90;;;6.30;99.90;;;;;;6349383;22;20007;-80
2023/01/03 02:26:44;;;;;;;1999.90;999.90;;;6.10;99.90;;;;;;6348810;22;20007;-80
2023/01/03 02:29:18;;;;;;;1999.90;999.90;;;6.10;99.90;;;;;;6354179;22;20071;-79
2023/01/03 02:32:05;;;;;;;1999.90;999.90;;;6.10;99.90;;;;;;6352299;22;20015;-80
2023/01/03 02:34:57;;;;;;;1999.90;999.90;;;6.00;99.90;;;;;;6319660;22;20034;-79
2023/01/03 02:38:04;;;;;;;1999.90;999.90;;;6.00;99.90;;;;;;6346185;22;20003;-80
2023/01/03 02:40:35;;;;;;;1999.90;999.90;;;5.90;99.90;;;;;;6220076;22;20061;-80
2023/01/03 02:43:01;;;;;;;1999.90;999.90;;;5.90;99.90;;;;;;6346251;22;20007;-80
2023/01/03 02:46:04;;;;;;;1999.90;999.90;;;5.80;99.90;;;;;;6318446;22;20008;-79
2023/01/03 02:48:59;;;;;;;1999.90;999.90;;;5.70;99.90;;;;;;6346298;22;19995;-80
2023/01/03 02:51:35;;;;;;;1999.90;999.90;;;5.60;99.90;;;;;;6347353;22;20355;-80
2023/01/03 02:54:03;;;;;;;1999.90;999.90;;;5.50;99.90;;;;;;6347861;22;20457;-80
2023/01/03 02:56:53;;;;;;;1999.90;999.90;;;5.40;99.90;;;;;;6318912;22;20080;-80
2023/01/03 02:59:24;;;;;;;1999.90;999.90;;;5.40;99.90;;;;;;6346941;22;20070;-79
2023/01/03 03:01:51;;;;;;;1999.90;999.90;;;5.30;99.90;;;;;;6346450;22;20450;-79
2023/01/03 03:04:18;;;;;;;1999.90;999.90;;;5.20;99.90;;;;;;6319251;22;20508;-80
2023/01/03 03:06:59;;;;;;;1999.90;999.90;;;5.20;99.90;;;;;;6347811;22;20014;-78
2023/01/03 03:09:25;;;;;;;1999.90;999.90;;;5.20;99.90;;;;;;6353512;22;20064;-79
2023/01/03 03:14:50;;;;;;;1999.90;999.90;;;5.50;99.90;;;;;;6353942;22;19999;-79
2023/01/03 03:17:21;;;;;;;1999.90;999.90;;;5.70;99.90;;;;;;6353087;22;20003;-79
2023/01/03 03:25:39;;;;;;;1999.90;999.90;;;6.10;99.90;;;;;;6353715;22;20007;-79
2023/01/03 03:28:34;;;;;;;1999.90;999.90;;;6.10;99.90;;;;;;6353748;22;20479;-79
2023/01/03 03:31:16;;;;;;;1999.90;999.90;;;6.10;99.90;;;;;;6326398;22;20079;-79
2023/01/03 03:33:49;;;;;;;1999.90;999.90;;;6.10;99.90;;;;;;6352775;22;19999;-78
2023/01/03 03:36:34;;;;;;;1999.90;999.90;;;5.90;99.90;;;;;;6325553;22;20010;-79
2023/01/03 03:39:01;;;;;;;1999.90;999.90;;;5.90;99.90;;;;;;6326389;22;20007;-79
2023/01/03 03:47:48;;;;;;;1999.90;999.90;;;5.80;99.90;;;;;;6353510;22;20011;-78
2023/01/03 03:50:26;;;;;;;1999.90;999.90;;;5.70;99.90;;;;;;6325882;22;20004;-79
2023/01/03 03:52:57;;;;;;;1999.90;999.90;;;5.70;99.90;;;;;;6320124;22;20193;-79
2023/01/03 03:55:38;;;;;;;1999.90;999.90;;;5.60;99.90;;;;;;6318978;22;20011;-80
2023/01/03 03:58:27;;;;;;;1999.90;999.90;;;5.50;99.90;;;;;;6346543;22;20012;-79
2023/01/03 04:00:55;;;;;;;1999.90;999.90;;;5.40;99.90;;;;;;6346940;22;20098;-80
2023/01/03 04:03:21;;;;;;;1999.90;999.90;;;5.30;99.90;;;;;;6318400;22;20485;-79
2023/01/03 04:05:56;;;;;;;1999.90;999.90;;;5.20;99.90;;;;;;6318657;22;20470;-80
2023/01/03 04:08:22;;;;;;;1999.90;999.90;;;5.40;99.90;;;;;;6318702;22;20014;-78
2023/01/03 04:10:48;;;;;;;1999.90;999.90;;;5.50;99.90;;;;;;6318574;22;20352;-79
2023/01/03 04:13:14;;;;;;;1999.90;999.90;;;5.40;99.90;;;;;;6346447;22;20007;-79
2023/01/03 04:15:39;;;;;;;1999.90;999.90;;;5.40;99.90;;;;;;6318854;22;20007;-79
2023/01/03 04:18:05;;;;;;;1999.90;999.90;;;5.40;99.90;;;;;;6347346;22;20012;-79
2023/01/03 04:20:30;;;;;;;1999.90;999.90;;;5.30;99.90;;;;;;6347401;22;20071;-79
2023/01/03 04:22:56;;;;;;;1999.90;999.90;;;5.20;99.90;;;;;;6347419;22;20051;-79
2023/01/03 04:25:22;;;;;;;1999.90;999.90;;;5.10;99.90;;;;;;6347320;22;20034;-79
2023/01/03 04:27:47;;;;;;;1999.90;999.90;;;5.00;99.90;;;;;;6344889;22;20013;-79
2023/01/03 04:30:13;;;;;;;1999.90;999.90;;;4.90;99.90;;;;;;6347780;22;20007;-79
2023/01/03 04:32:38;;;;;;;1999.90;999.90;;;4.90;99.90;;;;;;6345174;22;20011;-80
2023/01/03 04:35:04;;;;;;;1999.90;999.90;;;4.80;99.90;;;;;;6345523;22;20017;-79
2023/01/03 04:37:30;;;;;;;1999.90;999.90;;;4.80;99.90;;;;;;6318788;22;20011;-79
2023/01/03 04:39:56;;;;;;;1999.90;999.90;;;4.60;99.90;;;;;;6347327;22;20008;-79
2023/01/03 04:45:06;;;;;;;1999.90;999.90;;;4.60;99.90;;;;;;6352667;22;19999;-79
2023/01/03 04:47:32;;;;;;;1999.90;999.90;;;4.50;99.90;;;;;;6354269;22;20034;-80
2023/01/03 04:49:57;;;;;;;1999.90;999.90;;;4.40;99.90;;;;;;6349665;22;20029;-79
2023/01/03 04:52:23;;;;;;;1999.90;999.90;;;4.40;99.90;;;;;;6348434;22;20342;-78
2023/01/03 04:54:48;;;;;;;1999.90;999.90;;;4.30;99.90;;;;;;6319928;22;20011;-79
2023/01/03 04:57:14;;;;;;;1999.90;999.90;;;4.40;99.90;;;;;;6319744;22;20007;-79
2023/01/03 04:59:40;;;;;;;1999.90;999.90;;;4.40;99.90;;;;;;6347971;22;20052;-79
2023/01/03 05:02:05;;;;;;;1999.90;999.90;;;4.30;99.90;;;;;;6319530;22;20011;-79
2023/01/03 05:04:31;;;;;;;1999.90;999.90;;;4.30;99.90;;;;;;6319962;22;20439;-79
2023/01/03 05:06:56;;;;;;;1999.90;999.90;;;4.30;99.90;;;;;;6347684;22;20042;-79
2023/01/03 05:09:22;;;;;;;1999.90;999.90;;;4.30;99.90;;;;;;6346073;22;20004;-78
2023/01/03 05:11:48;;;;;;;1999.90;999.90;;;4.20;99.90;;;;;;6347873;22;20765;-79
2023/01/03 05:14:13;;;;;;;1999.90;999.90;;;4.10;99.90;;;;;;6322290;22;20003;-79
2023/01/03 05:16:39;;;;;;;1999.90;999.90;;;4.00;99.90;;;;;;6350319;22;20011;-79
2023/01/03 05:19:04;;;;;;;1999.90;999.90;;;4.00;99.90;;;;;;6352175;22;20003;-78
2023/01/03 05:27:01;;;;;;;1999.90;999.90;;;3.90;99.90;;;;;;6352106;22;20060;-79
2023/01/03 05:29:28;;;;;;;1999.90;999.90;;;4.00;99.90;;;;;;6324936;22;20015;-79
2023/01/03 05:31:53;;;;;;;1999.90;999.90;;;4.00;99.90;;;;;;6324020;22;20513;-79
2023/01/03 05:34:19;;;;;;;1999.90;999.90;;;4.00;99.90;;;;;;6324291;22;20018;-79
2023/01/03 05:36:45;;;;;;;1999.90;999.90;;;3.90;99.90;;;;;;6324277;22;20386;-79
2023/01/03 05:39:11;;;;;;;1999.90;999.90;;;3.80;99.90;;;;;;6352690;22;20485;-79
2023/01/03 05:44:21;;;;;;;1999.90;999.90;;;3.80;99.90;;;;;;6352710;22;20007;-79
2023/01/03 05:46:46;;;;;;;1999.90;999.90;;;3.80;99.90;;;;;;6324608;22;20012;-79
2023/01/03 05:49:12;;;;;;;1999.90;999.90;;;3.80;99.90;;;;;;6325274;22;20006;-79
2023/01/03 05:51:37;;;;;;;1999.90;999.90;;;3.80;99.90;;;;;;6353441;22;20062;-79
2023/01/03 05:54:03;;;;;;;1999.90;999.90;;;3.90;99.90;;;;;;6353185;22;20003;-78
2023/01/03 05:56:30;;;;;;;1999.90;999.90;;;3.90;99.90;;;;;;6351411;22;20039;-79
2023/01/03 05:58:56;;;;;;;1999.90;999.90;;;3.90;99.90;;;;;;6353369;22;20000;-79
2023/01/03 06:01:21;;;;;;;1999.90;999.90;;;3.90;99.90;;;;;;6353064;22;20007;-79
2023/01/03 06:03:47;;;;;;;1999.90;999.90;;;3.80;99.90;;;;;;6325107;22;20007;-79
2023/01/03 06:06:14;;;;;;;1999.90;999.90;;;3.70;99.90;;;;;;6352452;22;20003;-79
2023/01/03 06:08:39;;;;;;;1999.90;999.90;;;3.70;99.90;;;;;;6325348;22;20003;-79
2023/01/03 06:11:13;;;;;;;1999.90;999.90;;;3.70;99.90;;;;;;6353127;22;20078;-79
2023/01/03 06:13:39;;;;;;;1999.90;999.90;;;3.50;99.90;;;;;;6325280;22;20156;-79
2023/01/03 06:18:55;;;;;;;1999.90;999.90;;;3.50;99.90;;;;;;6353653;22;20008;-78
2023/01/03 06:21:21;;;;;;;1999.90;999.90;;;3.50;99.90;;;;;;6326359;22;20011;-79
2023/01/03 06:23:46;;;;;;;1999.90;999.90;;;3.40;99.90;;;;;;6326374;22;20080;-79
2023/01/03 06:26:14;;;;;;;1999.90;999.90;;;3.40;99.90;;;;;;6325732;22;20007;-79
2023/01/03 06:28:39;;;;;;;1999.90;999.90;;;3.40;99.90;;;;;;6326381;22;20003;-79
2023/01/03 06:31:05;;;;;;;1999.90;999.90;;;3.50;99.90;;;;;;6326152;22;20390;-79
2023/01/03 06:33:31;;;;;;;1999.90;999.90;;;3.40;99.90;;;;;;6354327;22;20377;-79
2023/01/03 06:35:56;;;;;;;1999.90;999.90;;;3.40;99.90;;;;;;6355391;22;20057;-79
2023/01/03 06:38:22;;;;;;;1999.90;999.90;;;3.30;99.90;;;;;;6329496;22;20347;-79
2023/01/03 06:40:48;;;;;;;1999.90;999.90;;;3.30;99.90;;;;;;6359154;22;20003;-79
2023/01/03 06:43:14;;;;;;;1999.90;999.90;;;3.30;99.90;;;;;;6326801;22;20015;-79
2023/01/03 06:53:57;;;;;;;1999.90;999.90;;;3.60;99.90;;;;;;6347156;22;20426;-79
2023/01/03 06:56:24;;;;;;;1999.90;999.90;;;3.60;99.90;;;;;;6346423;22;20011;-79
2023/01/03 06:58:50;;;;;;;1999.90;999.90;;;3.70;99.90;;;;;;6319662;22;20014;-79
2023/01/03 07:01:16;;;;;;;1999.90;999.90;;;3.70;99.90;;;;;;6344980;22;20018;-74
2023/01/03 07:03:41;;;;;;;1999.90;999.90;;;3.70;99.90;;;;;;6378216;22;20015;-75
2023/01/03 07:06:07;;;;;;;1999.90;999.90;;;3.90;99.90;;;;;;6379205;22;19999;-75
2023/01/03 07:08:32;;;;;;;1999.90;999.90;;;3.90;99.90;;;;;;6379466;22;20006;-75
2023/01/03 07:10:58;;;;;;;1999.90;999.90;;;4.00;99.90;;;;;;6350777;22;20007;-75
2023/01/03 07:16:33;;;;;;;1999.90;999.90;;;3.90;99.90;;;;;;6382337;22;20010;-77
2023/01/03 07:18:59;;;;;;;1999.90;999.90;;;3.90;99.90;;;;;;6349504;22;20075;-77
2023/01/03 07:21:27;;;;;;;1999.90;999.90;;;3.80;99.90;;;;;;6377270;22;20414;-77
2023/01/03 07:23:54;;;;;;;1999.90;999.90;;;3.90;99.90;;;;;;6349292;22;20006;-77
2023/01/03 07:26:20;;;;;;;1999.90;999.90;;;3.80;99.90;;;;;;6377419;22;20060;-77
2023/01/03 07:28:45;;;;;;;1999.90;999.90;;;3.80;99.90;;;;;;6377536;22;19999;-77
2023/01/03 07:31:11;;;;;;;1999.90;999.90;;;3.90;99.90;;;;;;6349280;22;20018;-76
2023/01/03 07:33:38;;;;;;;1999.90;999.90;;;3.90;99.90;;;;;;6377328;22;20438;-77
2023/01/03 07:36:08;;;;;;;1999.90;999.90;;;3.90;99.90;;;;;;6377245;22;20091;-77
2023/01/03 07:38:34;;;;;;;1999.90;999.90;;;4.00;99.90;;;;;;6377593;22;19999;-77
2023/01/03 07:41:00;;;;;;;1999.90;999.90;;;4.00;99.90;;;;;;6349169;22;20007;-77
2023/01/03 07:43:38;;;;;;;1999.90;999.90;;;4.10;99.90;;;;;;6377286;22;20013;-77
2023/01/03 07:46:24;;;;;;;1999.90;999.90;;;4.10;99.90;;;;;;6376998;22;20006;-77
2023/01/03 07:48:53;;;;;;;1999.90;999.90;;;4.10;99.90;;;;;;6376430;22;20002;-77
2023/01/03 07:51:20;;;;;;;1999.90;999.90;;;4.20;99.90;;;;;;6370580;22;20812;-77
2023/01/03 07:53:49;;;;;;;1999.90;999.90;;;4.20;99.90;;;;;;6373998;22;20082;-77
2023/01/03 07:56:18;;;;;;;1999.90;999.90;;;4.20;99.90;;;;;;6375828;22;20003;-76
2023/01/03 07:58:45;;;;;;;1999.90;999.90;;;4.20;99.90;;;;;;6377518;22;20006;-82
2023/01/03 08:01:17;;;;;;;1999.90;999.90;;;4.30;99.90;;;;;;6349641;22;20030;-77
2023/01/03 08:03:43;;;;;;;1999.90;999.90;;;4.30;99.90;;;;;;6378296;22;20013;-78
2023/01/03 08:06:11;;;;;;;1999.90;999.90;;;4.30;99.90;;;;;;6348840;22;20096;-78
2023/01/03 08:08:37;;;;;;;1999.90;999.90;;;4.30;99.90;;;;;;6377472;22;20002;-77
2023/01/03 08:13:47;;;;;;;1999.90;999.90;;;4.30;99.90;;;;;;6377469;22;20018;-77
2023/01/03 08:16:16;;;;;;;1999.90;999.90;;;4.30;99.90;;;;;;6376530;22;20350;-77
2023/01/03 08:18:42;;;;;;;1999.90;999.90;;;4.40;99.90;;;;;;6373552;22;20009;-77
2023/01/03 08:21:10;;;;;;;1999.90;999.90;;;4.40;99.90;;;;;;6374767;22;20025;-78
2023/01/03 08:23:36;;;;;;;1999.90;999.90;;;4.50;99.90;;;;;;6348835;22;20034;-76
2023/01/03 08:26:08;;;;;;;1999.90;999.90;;;4.60;99.90;;;;;;6376013;22;20225;-74
2023/01/03 08:28:34;;;;;;;1999.90;999.90;;;4.60;99.90;;;;;;6376003;22;20037;-73
2023/01/03 08:31:04;;;;;;;1999.90;999.90;;;4.60;99.90;;;;;;6346656;22;20007;-73
2023/01/03 08:33:35;;;;;;;1999.90;999.90;;;4.70;99.90;;;;;;6375698;22;20029;-73
2023/01/03 08:36:04;;;;;;;1999.90;999.90;;;4.70;99.90;;;;;;6382412;22;19994;-73
2023/01/03 08:38:39;;;;;;;1999.90;999.90;;;4.70;99.90;;;;;;6380189;22;20052;-73
2023/01/03 08:41:06;;;;;;;1999.90;999.90;;;4.80;99.90;;;;;;6376836;22;20056;-73
2023/01/03 08:46:06;;;;;;;1999.90;999.90;;;4.90;99.90;;;;;;6334605;22;20077;-75
2023/01/03 08:48:33;;;;;;;1999.90;999.90;;;4.90;99.90;;;;;;6344507;22;20029;-75
2023/01/03 08:50:59;;;;;;;1999.90;999.90;;;5.00;99.90;;;;;;6317190;22;20042;-75
2023/01/03 08:53:24;;;;;;;1999.90;999.90;;;5.10;99.90;;;;;;6316971;22;20400;-75
2023/01/03 08:55:50;;;;;;;1999.90;999.90;;;5.10;99.90;;;;;;6310217;22;20004;-75
2023/01/03 08:58:17;;;;;;;1999.90;999.90;;;5.20;99.90;;;;;;6313525;22;20077;-75
2023/01/03 09:00:42;;;;;;;1999.90;999.90;;;5.20;99.90;;;;;;6312706;22;20134;-74
2023/01/03 09:03:08;;;;;;;1999.90;999.90;;;5.30;99.90;;;;;;6342043;22;20086;-74
2023/01/03 09:05:33;;;;;;;1999.90;999.90;;;5.30;99.90;;;;;;6343621;22;20383;-74
2023/01/03 09:07:59;;;;;;;1999.90;999.90;;;5.30;99.90;;;;;;6317041;22;20011;-74
2023/01/03 09:10:25;;;;;;;1999.90;999.90;;;5.30;99.90;;;;;;6344662;22;20374;-74
2023/01/03 09:12:50;;;;;;;1999.90;999.90;;;5.30;99.90;;;;;;6344179;22;20447;-74
2023/01/03 09:15:16;;;;;;;1999.90;999.90;;;5.40;99.90;;;;;;6343723;22;20011;-74
2023/01/03 09:17:44;;;;;;;1999.90;999.90;;;5.40;99.90;;;;;;6344431;22;20042;-74
2023/01/03 09:20:11;;;;;;;1999.90;999.90;;;5.40;99.90;;;;;;6344576;22;20010;-74
2023/01/03 09:22:36;;;;;;;1999.90;999.90;;;5.30;99.90;;;;;;6343920;22;20035;-74
2023/01/03 09:25:03;;;;;;;1999.90;999.90;;;5.30;99.90;;;;;;6344221;22;20073;-74
2023/01/03 09:27:28;;;;;;;1999.90;999.90;;;5.30;99.90;;;;;;6344452;22;20011;-74
2023/01/03 09:29:54;;;;;;;1999.90;999.90;;;5.30;99.90;;;;;;6345582;22;20000;-74
2023/01/03 09:32:19;;;;;;;1999.90;999.90;;;5.30;99.90;;;;;;6345060;22;20097;-75
2023/01/03 09:34:45;;;;;;;1999.90;999.90;;;5.30;99.90;;;;;;6317897;22;20004;-74
2023/01/03 09:37:10;;;;;;;1999.90;999.90;;;5.30;99.90;;;;;;6345968;22;20003;-74
2023/01/03 09:39:36;;;;;;;1999.90;999.90;;;5.20;99.90;;;;;;6346096;22;19999;-75
2023/01/03 09:45:17;;;;;;;1999.90;999.90;;;5.20;99.90;;;;;;6188327;23;20076;-74
2023/01/03 09:47:44;;;;;;;1999.90;999.90;;;5.20;99.90;;;;;;6189595;23;20063;-75
2023/01/03 09:50:19;;;;;;;1999.90;999.90;;;5.10;99.90;;;;;;6263041;22;20008;-75
2023/01/03 10:04:31;;;;;;;1999.90;999.90;;;4.90;99.90;;;;;;6345737;22;20027;-75
2023/01/03 10:07:26;;;;;;;1999.90;999.90;;;4.90;99.90;;;;;;6345489;22;20061;-75
2023/01/03 10:10:03;;;;;;;1999.90;999.90;;;5.00;99.90;;;;;;6317979;22;20014;-75
2023/01/03 10:12:51;;;;;;;1999.90;999.90;;;5.00;99.90;;;;;;6345469;22;20011;-75
2023/01/03 10:15:40;;;;;;;1999.90;999.90;;;5.00;99.90;;;;;;6317592;22;20447;-75
2023/01/03 10:18:27;;;;;;;1999.90;999.90;;;5.10;99.90;;;;;;6346077;22;20065;-75
2023/01/03 10:21:02;;;;;;;1999.90;999.90;;;5.10;99.90;;;;;;6345666;22;20083;-75
2023/01/03 10:23:29;;;;;;;1999.90;999.90;;;5.10;99.90;;;;;;6317929;22;20099;-75
2023/01/03 10:25:55;;;;;;;1999.90;999.90;;;5.20;99.90;;;;;;6341233;22;20057;-75
2023/01/03 10:28:31;;;;;;;1999.90;999.90;;;5.30;99.90;;;;;;6317748;22;20094;-75
2023/01/03 10:31:20;;;;;;;1999.90;999.90;;;5.40;99.90;;;;;;6317703;22;20008;-75
2023/01/03 10:33:47;;;;;;;1999.90;999.90;;;5.50;99.90;;;;;;6346419;22;20014;-75
2023/01/03 10:36:15;;;;;;;1999.90;999.90;;;5.80;99.90;;;;;;6317737;22;20570;-75
2023/01/03 10:38:42;;;;;;;1999.90;999.90;;;6.10;99.90;;;;;;6317776;22;20029;-75
2023/01/03 10:41:32;;;;;;;1999.90;999.90;;;6.50;99.90;;;;;;6317458;22;20003;-75
2023/01/03 10:44:00;;;;;;;1999.90;999.90;;;6.90;99.90;;;;;;6348121;22;20010;-75
2023/01/03 10:46:26;;;;;;;1999.90;999.90;;;7.20;99.90;;;;;;6319807;22;20011;-75
2023/01/03 10:48:54;;;;;;;1999.90;999.90;;;7.30;99.90;;;;;;6345741;22;20034;-75
2023/01/03 10:51:31;;;;;;;1999.90;999.90;;;7.40;99.90;;;;;;6345475;22;20014;-75
2023/01/03 10:54:00;;;;;;;1999.90;999.90;;;7.50;99.90;;;;;;6317389;22;20011;-75
2023/01/03 10:56:29;;;;;;;1999.90;999.90;;;7.50;99.90;;;;;;6345671;22;20007;-75
2023/01/03 10:59:28;;;;;;;1999.90;999.90;;;7.50;99.90;;;;;;6345730;22;20003;-75
2023/01/03 11:02:21;;;;;;;1999.90;999.90;;;7.60;99.90;;;;;;6344918;22;20022;-75
2023/01/03 11:05:03;;;;;;;1999.90;999.90;;;7.80;99.90;;;;;;6312755;22;20003;-76
2023/01/03 11:07:29;;;;;;;1999.90;999.90;;;8.00;99.90;;;;;;6345902;22;20011;-76
2023/01/03 11:09:57;;;;;;;1999.90;999.90;;;8.20;99.90;;;;;;6345571;22;20010;-76
2023/01/03 11:12:38;;;;;;;1999.90;999.90;;;8.50;99.90;;;;;;6345388;22;20007;-76
2023/01/03 11:15:14;;;;;;;1999.90;999.90;;;8.80;99.90;;;;;;6340923;22;20003;-76
2023/01/03 11:18:01;;;;;;;1999.90;999.90;;;9.10;99.90;;;;;;6317751;22;20015;-76
2023/01/03 11:20:43;;;;;;;1999.90;999.90;;;9.20;99.90;;;;;;6345564;22;20003;-76
2023/01/03 11:23:34;;;;;;;1999.90;999.90;;;9.20;99.90;;;;;;6317884;22;20011;-76
2023/01/03 11:26:09;;;;;;;1999.90;999.90;;;9.10;99.90;;;;;;6345696;22;20079;-76
2023/01/03 11:28:52;;;;;;;1999.90;999.90;;;9.00;99.90;;;;;;6345875;22;20011;-76
2023/01/03 11:31:20;;;;;;;1999.90;999.90;;;8.90;99.90;;;;;;6345414;22;20021;-75
2023/01/03 11:33:55;;;;;;;1999.90;999.90;;;8.80;99.90;;;;;;6318318;22;20810;-76
2023/01/03 11:36:44;;;;;;;1999.90;999.90;;;8.80;99.90;;;;;;6319052;22;20011;-76
2023/01/03 11:39:21;;;;;;;1999.90;999.90;;;8.80;99.90;;;;;;6346881;22;20447;-76
2023/01/03 11:42:00;;;;;;;1999.90;999.90;;;8.80;99.90;;;;;;6346877;22;20003;-77
2023/01/03 11:44:41;;;;;;;1999.90;999.90;;;8.90;99.90;;;;;;6345398;22;20074;-74
2023/01/03 11:47:14;;;;;;;1999.90;999.90;;;8.80;99.90;;;;;;6345687;22;20007;-74
2023/01/03 11:49:48;;;;;;;1999.90;999.90;;;8.80;99.90;;;;;;6345373;22;20477;-74
2023/01/03 11:52:27;;;;;;;1999.90;999.90;;;8.90;99.90;;;;;;6345514;22;20039;-75
2023/01/03 11:55:15;;;;;;;1999.90;999.90;;;8.90;99.90;;;;;;6345333;22;20004;-77
2023/01/03 11:57:56;;;;;;;1999.90;999.90;;;8.80;99.90;;;;;;6317779;22;20008;-75
2023/01/03 12:01:00;;;;;;;1999.90;999.90;;;8.80;99.90;;;;;;6345520;22;20466;-75
2023/01/03 12:04:02;;;;;;;1999.90;999.90;;;8.80;99.90;;;;;;6317436;22;20339;-74
2023/01/03 12:06:36;;;;;;;1999.90;999.90;;;8.90;99.90;;;;;;6344735;22;20042;-75
2023/01/03 12:09:28;;;;;;;1999.90;999.90;;;9.00;99.90;;;;;;6345281;22;20081;-75
2023/01/03 12:12:24;;;;;;;1999.90;999.90;;;9.10;99.90;;;;;;6344987;22;20095;-75
2023/01/03 12:14:58;;;;;;;1999.90;999.90;;;9.20;99.90;;;;;;6341660;22;19999;-75
2023/01/03 12:17:36;;;;;;;1999.90;999.90;;;9.30;99.90;;;;;;6345204;22;20007;-74
2023/01/03 12:20:29;;;;;;;1999.90;999.90;;;9.40;99.90;;;;;;6345397;22;19999;-74
2023/01/03 12:23:19;;;;;;;1999.90;999.90;;;9.50;99.90;;;;;;6344780;22;20533;-75
2023/01/03 12:25:51;;;;;;;1999.90;999.90;;;9.50;99.90;;;;;;6344980;22;20007;-74
2023/01/03 12:28:34;;;;;;;1999.90;999.90;;;9.50;99.90;;;;;;6344950;22;20011;-75
2023/01/03 12:31:18;;;;;;;1999.90;999.90;;;9.50;99.90;;;;;;6339895;22;20006;-75
2023/01/03 12:34:04;;;;;;;1999.90;999.90;;;9.60;99.90;;;;;;6339573;22;20016;-75
2023/01/03 12:36:36;;;;;;;1999.90;999.90;;;9.60;99.90;;;;;;6344613;22;20006;-75
2023/01/03 12:39:26;;;;;;;1999.90;999.90;;;9.70;99.90;;;;;;6314663;22;20354;-74
2023/01/03 12:42:04;;;;;;;1999.90;999.90;;;9.70;99.90;;;;;;6339041;22;20004;-75
2023/01/03 12:44:43;;;;;;;1999.90;999.90;;;9.80;99.90;;;;;;6344574;22;20012;-75
2023/01/03 12:47:44;;;;;;;1999.90;999.90;;;9.80;99.90;;;;;;6339511;22;20473;-76
2023/01/03 12:50:34;;;;;;;1999.90;999.90;;;9.80;99.90;;;;;;6343178;22;20007;-75
2023/01/03 12:53:28;;;;;;;1999.90;999.90;;;9.80;99.90;;;;;;6343999;22;20769;-75
2023/01/03 12:55:59;;;;;;;1999.90;999.90;;;9.80;99.90;;;;;;6344618;22;20042;-75
2023/01/03 12:58:48;;;;;;;1999.90;999.90;;;9.90;99.90;;;;;;6345145;22;20033;-75
2023/01/03 13:01:24;;;;;;;1999.90;999.90;;;9.90;99.90;;;;;;6317137;22;20011;-76
2023/01/03 13:04:01;;;;;;;1999.90;999.90;;;10.00;99.90;;;;;;6346013;22;20087;-75
2023/01/03 13:06:38;;;;;;;1999.90;999.90;;;10.00;99.90;;;;;;6346452;22;20007;-75
2023/01/03 13:09:17;;;;;;;1999.90;999.90;;;10.10;99.90;;;;;;6346566;22;20051;-75
2023/01/03 13:11:50;;;;;;;1999.90;999.90;;;10.00;99.90;;;;;;6346330;22;20017;-75
2023/01/03 13:14:22;;;;;;;1999.90;999.90;;;10.10;99.90;;;;;;6346158;22;20053;-75
2023/01/03 13:16:50;;;;;;;1999.90;999.90;;;10.20;99.90;;;;;;6317984;22;20421;-75
2023/01/03 13:19:21;;;;;;;1999.90;999.90;;;10.30;99.90;;;;;;6346160;22;20022;-75
2023/01/03 13:21:53;;;;;;;1999.90;999.90;;;10.50;99.90;;;;;;6346040;22;20003;-75
2023/01/03 13:24:43;;;;;;;1999.90;999.90;;;10.50;99.90;;;;;;6346069;22;20068;-75
2023/01/03 13:27:17;;;;;;;1999.90;999.90;;;10.50;99.90;;;;;;6346267;22;20018;-76
2023/01/03 13:29:47;;;;;;;1999.90;999.90;;;10.60;99.90;;;;;;6318462;22;20007;-75
2023/01/03 13:32:19;;;;;;;1999.90;999.90;;;10.60;99.90;;;;;;6346129;22;20007;-75
2023/01/03 13:35:04;;;;;;;1999.90;999.90;;;10.50;99.90;;;;;;6318203;22;20004;-75
2023/01/03 13:37:49;;;;;;;1999.90;999.90;;;10.50;99.90;;;;;;6318146;22;20018;-75
2023/01/03 13:40:27;;;;;;;1999.90;999.90;;;10.30;99.90;;;;;;6346219;22;20086;-75
2023/01/03 13:43:07;;;;;;;1999.90;999.90;;;10.10;99.90;;;;;;6346091;22;20009;-76
2023/01/03 13:45:32;;;;;;;1999.90;999.90;;;10.20;99.90;;;;;;6345929;22;20087;-75
2023/01/03 13:48:29;;;;;;;1999.90;999.90;;;10.30;99.90;;;;;;6346316;22;20141;-76
2023/01/03 13:51:14;;;;;;;1999.90;999.90;;;10.40;99.90;;;;;;6317028;22;20008;-75
2023/01/03 13:53:59;;;;;;;1999.90;999.90;;;10.30;99.90;;;;;;6346165;22;20090;-75
2023/01/03 13:56:31;;;;;;;1999.90;999.90;;;10.20;99.90;;;;;;6346236;22;20004;-75
2023/01/03 13:59:01;;;;;;;1999.90;999.90;;;10.20;99.90;;;;;;6346271;22;20007;-75
2023/01/03 14:01:44;;;;;;;1999.90;999.90;;;10.20;99.90;;;;;;6345814;22;20009;-75
2023/01/03 14:04:29;;;;;;;1999.90;999.90;;;10.20;99.90;;;;;;6345955;22;20138;-75
2023/01/03 14:07:24;;;;;;;1999.90;999.90;;;10.20;99.90;;;;;;6346282;22;19999;-75
2023/01/03 14:09:50;;;;;;;1999.90;999.90;;;10.00;99.90;;;;;;6346407;22;20018;-75
2023/01/03 14:12:46;;;;;;;1999.90;999.90;;;9.90;99.90;;;;;;6317977;22;20014;-75
2023/01/03 14:15:18;;;;;;;1999.90;999.90;;;9.80;99.90;;;;;;6345235;22;20006;-74
2023/01/03 14:17:47;;;;;;;1999.90;999.90;;;9.60;99.90;;;;;;6346321;22;20495;-75
2023/01/03 14:20:19;;;;;;;1999.90;999.90;;;9.50;99.90;;;;;;6346228;22;20010;-75
2023/01/03 14:22:47;;;;;;;1999.90;999.90;;;9.40;99.90;;;;;;6346091;22;20056;-75